Mapa de nuvens (SC)

Imagem satélite Climatempo

Mapa GOES 13 Colorida (Sul)

Imagem satélite Climatempo

Radar de chuvas (Lontras/SC)

Radar Ciram Epagri

Mapa de raios

Radios Simepar

Previsão para Florianópolis

Terça-feira

Parcialmente nublado, possibilidade de trovoada. Máxima de 24°C. Ventos N a 15 a 30 km/h. Possib. de chuva 30%.


Terça à noite

Trovoadas esporádicas. Mínima 18°C. NNO mudança de ventos para SSO a 15 a 30 km/h. Possib. de chuva 60%.


Quarta-feira

Possibilidade de Chuva

22º / 16º

Quinta-feira

Céu Limpo

24º / 18º

Sexta-feira

Céu Limpo

27º / 19º

Aeroporto Florianópolis/SC (FLN) - SBFL


Situação: Aberto para pouso e decolagem

Atualização: 0942 UTC 21 Nov 2017

Vento: 09KT (17,5 Km/h) - Norte (N) (350º)

Visibilidade: Maior que 10.000 metros

Poucas nuvens a 2000 ft

Nuvens esparsas a 4000 ft

Temperatura: 22ºC / 19ºC

Pressão: 1012 hPa

Data at: 0942 UTC 21 Nov 2017SBFL 210900Z 35009KT 9999 FEW020 SCT040 22/19 Q1012